Time;durP1;ratioP1;P1;durP2;ratioP2;P2;SDS_P1;SDS_P2;PMS_P1;PMS_P2;Temp;Humidity;BMP_temperature;BMP_pressure;BME280_temperature;BME280_humidity;BME280_pressure;Samples;Min_cycle;Max_cycle;Signal;HPM_P1;HPM_P2
2022/06/03 00:00:07;;;;;;;3.45;2.33;;;;;;;;;;5023401;28;20084;-75
2022/06/03 00:03:02;;;;;;;3.17;2.10;;;;;;;;;;5029594;28;20026;-75
2022/06/03 00:05:55;;;;;;;3.45;2.60;;;;;;;;;;5029402;28;20026;-74
2022/06/03 00:08:53;;;;;;;3.03;2.40;;;;;;;;;;5030201;28;20029;-74
2022/06/03 00:11:31;;;;;;;2.95;2.47;;;;;;;;;;5011353;28;20026;-74
2022/06/03 00:14:18;;;;;;;3.70;2.10;;;;;;;;;;5029266;28;20032;-74
2022/06/03 00:17:07;;;;;;;3.15;2.28;;;;;;;;;;5012162;28;20033;-74
2022/06/03 00:20:06;;;;;;;4.45;2.30;;;;;;;;;;5029092;28;20022;-74
2022/06/03 00:23:26;;;;;;;3.60;2.35;;;;;;;;;;5028811;28;20524;-75
2022/06/03 00:26:19;;;;;;;3.20;2.42;;;;;;;;;;4928975;29;20441;-76
2022/06/03 00:29:05;;;;;;;3.35;2.28;;;;;;;;;;4995939;28;20042;-74
2022/06/03 00:31:58;;;;;;;3.35;2.38;;;;;;;;;;5014919;28;20034;-75
2022/06/03 00:34:24;;;;;;;4.65;2.70;;;;;;;;;;4997328;28;20030;-76
2022/06/03 00:37:34;;;;;;;3.33;2.50;;;;;;;;;;5014939;28;20033;-75
2022/06/03 00:40:23;;;;;;;2.78;2.22;;;;;;;;;;4971231;28;20545;-75
2022/06/03 00:43:16;;;;;;;3.72;2.42;;;;;;;;;;4997078;28;20029;-76
2022/06/03 00:45:44;;;;;;;4.35;2.22;;;;;;;;;;5014946;28;20076;-75
2022/06/03 00:48:36;;;;;;;2.75;2.40;;;;;;;;;;5014754;28;20025;-75
2022/06/03 00:51:21;;;;;;;2.78;2.40;;;;;;;;;;5014662;28;20029;-74
2022/06/03 00:54:16;;;;;;;2.63;2.05;;;;;;;;;;5014649;28;20064;-75
2022/06/03 00:57:02;;;;;;;3.33;2.70;;;;;;;;;;5013963;28;20109;-75
2022/06/03 00:59:56;;;;;;;5.05;2.65;;;;;;;;;;5014435;28;20505;-76
2022/06/03 01:02:40;;;;;;;2.60;2.40;;;;;;;;;;5014252;28;20025;-76
2022/06/03 01:05:50;;;;;;;4.38;2.58;;;;;;;;;;5014311;28;20028;-76
2022/06/03 01:08:32;;;;;;;2.97;2.50;;;;;;;;;;5014285;28;20032;-76
2022/06/03 01:11:03;;;;;;;2.58;2.33;;;;;;;;;;5014320;28;20026;-76
2022/06/03 01:13:54;;;;;;;2.70;2.45;;;;;;;;;;5014101;28;20040;-74
2022/06/03 01:16:31;;;;;;;3.08;2.60;;;;;;;;;;5014268;28;20095;-76
2022/06/03 01:19:09;;;;;;;3.40;2.58;;;;;;;;;;5014050;28;20057;-75
2022/06/03 01:22:08;;;;;;;4.18;2.60;;;;;;;;;;5014503;28;20033;-75
2022/06/03 01:25:04;;;;;;;3.45;2.58;;;;;;;;;;5014003;28;20399;-76
2022/06/03 01:27:35;;;;;;;4.43;2.85;;;;;;;;;;4988431;28;20072;-76
2022/06/03 01:30:18;;;;;;;4.75;2.40;;;;;;;;;;5014151;28;20022;-76
2022/06/03 01:32:53;;;;;;;4.95;2.75;;;;;;;;;;5013476;28;20030;-74
2022/06/03 01:35:18;;;;;;;4.05;2.53;;;;;;;;;;4996076;28;20083;-76
2022/06/03 01:38:02;;;;;;;3.93;2.60;;;;;;;;;;5013879;28;20025;-76
2022/06/03 01:41:02;;;;;;;3.55;2.55;;;;;;;;;;5013706;28;20629;-75
2022/06/03 01:43:53;;;;;;;3.22;2.75;;;;;;;;;;5013883;28;20091;-76
2022/06/03 01:46:35;;;;;;;3.33;2.80;;;;;;;;;;5014180;28;20026;-75
2022/06/03 01:49:29;;;;;;;3.05;2.47;;;;;;;;;;5013817;28;20045;-76
2022/06/03 01:52:31;;;;;;;7.70;2.75;;;;;;;;;;5013549;28;20026;-76
2022/06/03 01:55:40;;;;;;;3.58;2.33;;;;;;;;;;5013863;28;20034;-75
2022/06/03 01:58:32;;;;;;;4.35;2.53;;;;;;;;;;5013709;28;20463;-76
2022/06/03 02:01:16;;;;;;;3.97;2.67;;;;;;;;;;5013301;28;20041;-76
2022/06/03 02:04:25;;;;;;;3.17;2.80;;;;;;;;;;5013625;28;20026;-76
2022/06/03 02:07:11;;;;;;;3.42;2.55;;;;;;;;;;5013620;28;20033;-75
2022/06/03 02:10:14;;;;;;;3.97;2.65;;;;;;;;;;4995623;28;20077;-75
2022/06/03 02:13:12;;;;;;;3.13;2.47;;;;;;;;;;5013109;28;20025;-75
2022/06/03 02:16:02;;;;;;;3.25;2.70;;;;;;;;;;4995703;28;20084;-76
2022/06/03 02:18:49;;;;;;;3.22;2.55;;;;;;;;;;5013554;28;20030;-76
2022/06/03 02:21:39;;;;;;;3.50;2.90;;;;;;;;;;4995642;28;20101;-75
2022/06/03 02:24:26;;;;;;;4.53;3.10;;;;;;;;;;5013381;28;20029;-75
2022/06/03 02:27:11;;;;;;;3.47;2.60;;;;;;;;;;5013204;28;20030;-76
2022/06/03 02:33:13;;;;;;;2.60;2.28;;;;;;;;;;5013111;28;20084;-76
2022/06/03 02:35:49;;;;;;;3.63;2.88;;;;;;;;;;5013591;28;20474;-76
2022/06/03 02:38:39;;;;;;;3.85;2.63;;;;;;;;;;5013002;28;20393;-75
2022/06/03 02:41:36;;;;;;;4.15;3.05;;;;;;;;;;5013221;28;20026;-76
2022/06/03 02:44:39;;;;;;;7.88;2.90;;;;;;;;;;5013536;28;20037;-75
2022/06/03 02:47:26;;;;;;;3.45;2.63;;;;;;;;;;5013193;28;20025;-75
2022/06/03 02:50:38;;;;;;;3.42;2.60;;;;;;;;;;5012954;28;20038;-75
2022/06/03 02:53:41;;;;;;;3.83;2.63;;;;;;;;;;5013271;28;20022;-76
2022/06/03 02:56:43;;;;;;;5.13;3.08;;;;;;;;;;4995199;28;20030;-75
2022/06/03 02:59:36;;;;;;;8.05;2.67;;;;;;;;;;5012933;28;20094;-76
2022/06/03 03:02:21;;;;;;;4.22;2.53;;;;;;;;;;5012955;28;20034;-74
2022/06/03 03:04:58;;;;;;;4.15;2.70;;;;;;;;;;5013112;28;20096;-76
2022/06/03 03:07:39;;;;;;;3.90;2.78;;;;;;;;;;5013382;28;20049;-77
2022/06/03 03:10:33;;;;;;;5.15;2.58;;;;;;;;;;5012846;28;20068;-75
2022/06/03 03:13:43;;;;;;;6.78;2.72;;;;;;;;;;5003089;28;20550;-75
2022/06/03 03:16:20;;;;;;;4.00;2.72;;;;;;;;;;4995168;28;20041;-75
2022/06/03 03:18:57;;;;;;;4.53;2.58;;;;;;;;;;4995062;28;20022;-76
2022/06/03 03:21:46;;;;;;;3.40;2.80;;;;;;;;;;5016120;28;20105;-74
2022/06/03 03:25:00;;;;;;;3.10;2.65;;;;;;;;;;4998487;28;20030;-75
2022/06/03 03:28:05;;;;;;;7.30;3.05;;;;;;;;;;4929324;28;20047;-77
2022/06/03 03:30:38;;;;;;;3.50;2.90;;;;;;;;;;5016223;28;20022;-75
2022/06/03 03:33:22;;;;;;;3.58;2.85;;;;;;;;;;5015729;28;20080;-74
2022/06/03 03:36:13;;;;;;;5.05;3.08;;;;;;;;;;5015928;28;20038;-75
2022/06/03 03:38:56;;;;;;;3.35;2.83;;;;;;;;;;4998112;28;20026;-74
2022/06/03 03:41:47;;;;;;;3.78;2.55;;;;;;;;;;5015905;28;20026;-74
2022/06/03 03:44:47;;;;;;;3.47;3.03;;;;;;;;;;5015689;28;20029;-74
2022/06/03 03:47:50;;;;;;;6.10;3.00;;;;;;;;;;5015720;28;20025;-74
2022/06/03 03:50:57;;;;;;;4.00;3.03;;;;;;;;;;5015540;28;20026;-75
2022/06/03 03:53:49;;;;;;;3.30;2.67;;;;;;;;;;4997991;28;20029;-74
2022/06/03 03:56:44;;;;;;;3.97;2.75;;;;;;;;;;4997856;28;20030;-75
2022/06/03 03:59:28;;;;;;;2.83;2.45;;;;;;;;;;5015753;28;20475;-75
2022/06/03 04:02:21;;;;;;;3.00;2.60;;;;;;;;;;5015662;28;20021;-75
2022/06/03 04:05:11;;;;;;;5.03;2.78;;;;;;;;;;4998294;28;20026;-75
2022/06/03 04:08:14;;;;;;;3.30;2.80;;;;;;;;;;5015295;28;20014;-75
2022/06/03 04:10:56;;;;;;;5.72;2.65;;;;;;;;;;5015276;28;20055;-75
2022/06/03 04:13:39;;;;;;;5.75;3.17;;;;;;;;;;5015694;28;20033;-75
2022/06/03 04:16:32;;;;;;;4.97;2.70;;;;;;;;;;5015261;28;20428;-75
2022/06/03 04:19:23;;;;;;;3.70;2.92;;;;;;;;;;4997437;28;20022;-75
2022/06/03 04:22:10;;;;;;;4.63;3.00;;;;;;;;;;5015058;28;20092;-75
2022/06/03 04:24:40;;;;;;;3.92;2.67;;;;;;;;;;4997300;28;20025;-75
2022/06/03 04:27:19;;;;;;;3.35;2.67;;;;;;;;;;5015244;28;20475;-74
2022/06/03 04:30:08;;;;;;;5.75;3.13;;;;;;;;;;5015248;28;20033;-75
2022/06/03 04:33:15;;;;;;;3.20;2.63;;;;;;;;;;5013815;28;20032;-75
2022/06/03 04:36:13;;;;;;;9.45;2.80;;;;;;;;;;4997227;28;20029;-75
2022/06/03 04:39:16;;;;;;;5.85;2.70;;;;;;;;;;5014951;28;20026;-75
2022/06/03 04:42:20;;;;;;;3.70;2.80;;;;;;;;;;5014771;28;20030;-75
2022/06/03 04:45:15;;;;;;;;;;;;;;;;;;4994163;28;20169;-75
2022/06/03 04:48:08;;;;;;;3.60;2.80;;;;;;;;;;5005343;28;19918;-75
2022/06/03 04:51:12;;;;;;;3.10;2.47;;;;;;;;;;5015375;28;20022;-74
2022/06/03 04:54:13;;;;;;;3.72;2.72;;;;;;;;;;4996927;28;20033;-75
2022/06/03 04:57:03;;;;;;;3.72;2.75;;;;;;;;;;4954465;28;20034;-74
2022/06/03 04:59:56;;;;;;;3.22;2.63;;;;;;;;;;5014818;28;20038;-75
2022/06/03 05:02:46;;;;;;;4.65;3.20;;;;;;;;;;5014234;28;20021;-74
2022/06/03 05:05:17;;;;;;;3.38;2.63;;;;;;;;;;5014210;28;20054;-75
2022/06/03 05:08:13;;;;;;;4.75;2.70;;;;;;;;;;4996702;28;20030;-75
2022/06/03 05:10:38;;;;;;;3.50;2.50;;;;;;;;;;5014259;28;20046;-76
2022/06/03 05:13:42;;;;;;;4.50;2.57;;;;;;;;;;5013877;28;20026;-76
2022/06/03 05:16:29;;;;;;;;;;;;;;;;;;4996907;28;20053;-75
2022/06/03 05:18:55;;;;;;;4.32;2.78;;;;;;;;;;5014512;28;20007;-75
2022/06/03 05:21:52;;;;;;;7.55;3.50;;;;;;;;;;4996168;28;20057;-76
2022/06/03 05:24:38;;;;;;;5.53;2.75;;;;;;;;;;5014159;28;20122;-76
2022/06/03 05:27:18;;;;;;;6.63;3.40;;;;;;;;;;5014045;28;20022;-75
2022/06/03 05:30:20;;;;;;;6.68;2.90;;;;;;;;;;4996885;28;20364;-75
2022/06/03 05:33:04;;;;;;;6.20;2.50;;;;;;;;;;5013501;28;20048;-74
2022/06/03 05:35:51;;;;;;;2.95;2.53;;;;;;;;;;5013695;28;20119;-75
2022/06/03 05:39:11;;;;;;;6.03;2.30;;;;;;;;;;5013527;28;20021;-75
2022/06/03 05:42:23;;;;;;;3.47;2.30;;;;;;;;;;5013561;28;20062;-75
2022/06/03 05:45:17;;;;;;;5.03;2.20;;;;;;;;;;5013405;28;20030;-75
2022/06/03 05:47:52;;;;;;;4.45;2.65;;;;;;;;;;5013966;28;20026;-74
2022/06/03 05:50:30;;;;;;;3.25;2.45;;;;;;;;;;5013414;28;20033;-76
2022/06/03 05:53:03;;;;;;;5.43;2.65;;;;;;;;;;5013343;28;20487;-77
2022/06/03 05:55:49;;;;;;;5.00;2.50;;;;;;;;;;5013724;28;20065;-75
2022/06/03 05:58:14;;;;;;;3.03;2.35;;;;;;;;;;5014113;28;20490;-74
2022/06/03 06:00:48;;;;;;;7.17;2.43;;;;;;;;;;5013851;28;20029;-73
2022/06/03 06:03:28;;;;;;;5.10;2.30;;;;;;;;;;5013298;28;20506;-77
2022/06/03 06:06:40;;;;;;;7.38;2.22;;;;;;;;;;5013534;28;20027;-77
2022/06/03 06:09:34;;;;;;;3.83;2.47;;;;;;;;;;5013324;28;20072;-76
2022/06/03 06:12:16;;;;;;;4.65;2.60;;;;;;;;;;4995475;28;20072;-75
2022/06/03 06:15:07;;;;;;;3.28;2.20;;;;;;;;;;5013091;28;20030;-76
2022/06/03 06:17:43;;;;;;;5.72;2.20;;;;;;;;;;5013255;28;20022;-76
2022/06/03 06:20:46;;;;;;;4.03;2.17;;;;;;;;;;5013170;28;20026;-74
2022/06/03 06:23:19;;;;;;;4.00;2.10;;;;;;;;;;4991104;28;20029;-76
2022/06/03 06:25:56;;;;;;;3.45;2.22;;;;;;;;;;4995503;28;20093;-76
2022/06/03 06:28:36;;;;;;;4.30;2.20;;;;;;;;;;5013093;28;20025;-77
2022/06/03 06:31:21;;;;;;;2.47;1.90;;;;;;;;;;5013085;28;20064;-76
2022/06/03 06:34:13;;;;;;;10.13;1.92;;;;;;;;;;5013803;28;20424;-75
2022/06/03 06:37:06;;;;;;;2.92;2.35;;;;;;;;;;5012987;28;20123;-77
2022/06/03 06:39:53;;;;;;;3.10;2.22;;;;;;;;;;5013227;28;20022;-75
2022/06/03 06:42:33;;;;;;;2.83;2.05;;;;;;;;;;4995369;28;20037;-76
2022/06/03 06:45:27;;;;;;;5.40;2.22;;;;;;;;;;5013108;28;20022;-76
2022/06/03 06:48:08;;;;;;;6.13;2.20;;;;;;;;;;4995241;28;20022;-76
2022/06/03 06:50:48;;;;;;;10.40;2.10;;;;;;;;;;5012857;28;20393;-76
2022/06/03 06:53:31;;;;;;;2.78;1.92;;;;;;;;;;5012986;28;20022;-76
2022/06/03 06:56:11;;;;;;;4.80;1.80;;;;;;;;;;4998297;28;20444;-76
2022/06/03 06:58:56;;;;;;;4.70;1.90;;;;;;;;;;5016562;28;20025;-76
2022/06/03 07:01:27;;;;;;;3.78;2.00;;;;;;;;;;5016646;28;20121;-76
2022/06/03 07:04:04;;;;;;;3.83;2.08;;;;;;;;;;4998821;28;20026;-76
2022/06/03 07:06:43;;;;;;;3.38;1.55;;;;;;;;;;5016654;28;20030;-76
2022/06/03 07:09:11;;;;;;;2.33;1.50;;;;;;;;;;4998788;28;20065;-76
2022/06/03 07:12:04;;;;;;;1.77;1.55;;;;;;;;;;5016335;28;20401;-75
2022/06/03 07:14:34;;;;;;;4.47;1.40;;;;;;;;;;5016557;28;20026;-75
2022/06/03 07:20:48;;;;;;;4.40;1.35;;;;;;;;;;5016559;28;20029;-76
2022/06/03 07:23:37;;;;;;;5.32;1.40;;;;;;;;;;5016382;28;20025;-76
2022/06/03 07:26:10;;;;;;;1.80;1.40;;;;;;;;;;5016151;28;20049;-77
2022/06/03 07:28:58;;;;;;;1.23;1.13;;;;;;;;;;5016323;28;20030;-77
2022/06/03 07:31:42;;;;;;;2.47;1.23;;;;;;;;;;5016016;28;20445;-77
2022/06/03 07:34:21;;;;;;;;;;;;;;;;;;4999261;28;20045;-72
2022/06/03 07:36:52;;;;;;;2.92;1.20;;;;;;;;;;5016097;28;20080;-72
2022/06/03 07:39:32;;;;;;;1.60;1.10;;;;;;;;;;5016231;28;20037;-73
2022/06/03 07:42:13;;;;;;;3.92;1.33;;;;;;;;;;4998368;28;20141;-72
2022/06/03 07:44:55;;;;;;;8.55;1.75;;;;;;;;;;5016450;28;20065;-72
2022/06/03 07:47:23;;;;;;;5.78;1.30;;;;;;;;;;4998383;28;20041;-72
2022/06/03 07:49:58;;;;;;;3.88;1.45;;;;;;;;;;5016016;28;20116;-71
2022/06/03 07:52:52;;;;;;;2.65;1.30;;;;;;;;;;5015724;28;20030;-76
2022/06/03 07:55:22;;;;;;;1.25;1.15;;;;;;;;;;5012661;28;20120;-76
2022/06/03 07:57:51;;;;;;;1.95;1.23;;;;;;;;;;4998400;28;20037;-76
2022/06/03 08:00:19;;;;;;;1.52;1.20;;;;;;;;;;5015474;28;20018;-76
2022/06/03 08:02:45;;;;;;;2.95;1.20;;;;;;;;;;5016188;28;20018;-76
2022/06/03 08:05:19;;;;;;;5.05;1.35;;;;;;;;;;5014902;28;20037;-74
2022/06/03 08:11:00;;;;;;;3.35;1.33;;;;;;;;;;5015667;28;20521;-76
2022/06/03 08:13:47;;;;;;;1.77;1.25;;;;;;;;;;4997506;28;20052;-75
2022/06/03 08:16:34;;;;;;;4.10;1.20;;;;;;;;;;5015159;28;20053;-75
2022/06/03 08:19:08;;;;;;;1.98;1.40;;;;;;;;;;4997543;28;20030;-75
2022/06/03 08:21:41;;;;;;;1.33;1.13;;;;;;;;;;5014914;28;20032;-75
2022/06/03 08:24:09;;;;;;;6.75;1.30;;;;;;;;;;5015399;28;20384;-75
2022/06/03 08:26:36;;;;;;;2.70;1.70;;;;;;;;;;5014758;28;20483;-75
2022/06/03 08:29:12;;;;;;;3.67;1.40;;;;;;;;;;5015018;28;20022;-76
2022/06/03 08:31:38;;;;;;;7.28;1.55;;;;;;;;;;5014518;28;20038;-76
2022/06/03 08:34:07;;;;;;;2.33;1.50;;;;;;;;;;5014873;28;20033;-76
2022/06/03 08:36:37;;;;;;;4.20;1.30;;;;;;;;;;5014533;28;20029;-76
2022/06/03 08:39:19;;;;;;;1.70;1.30;;;;;;;;;;5014824;28;20022;-77
2022/06/03 08:42:03;;;;;;;2.88;1.23;;;;;;;;;;5014510;28;20490;-76
2022/06/03 08:45:05;;;;;;;3.00;1.42;;;;;;;;;;4997702;28;20044;-75
2022/06/03 08:47:41;;;;;;;5.55;1.50;;;;;;;;;;5014524;28;20061;-75
2022/06/03 08:50:28;;;;;;;3.00;1.30;;;;;;;;;;5014530;28;20026;-76
2022/06/03 08:53:15;;;;;;;1.98;1.65;;;;;;;;;;5014077;28;20037;-75
2022/06/03 08:55:43;;;;;;;4.88;1.40;;;;;;;;;;5014270;28;20144;-75
2022/06/03 08:58:24;;;;;;;2.15;1.30;;;;;;;;;;5014332;28;20100;-76
2022/06/03 09:01:03;;;;;;;2.92;1.40;;;;;;;;;;5014376;28;20097;-75
2022/06/03 09:03:30;;;;;;;2.33;1.30;;;;;;;;;;5014895;28;20375;-76
2022/06/03 09:06:06;;;;;;;4.03;1.70;;;;;;;;;;5014021;28;20111;-75
2022/06/03 09:08:34;;;;;;;3.60;1.42;;;;;;;;;;4996338;28;20554;-76
2022/06/03 09:11:04;;;;;;;5.15;1.40;;;;;;;;;;5014014;28;20112;-76
2022/06/03 09:13:48;;;;;;;3.25;1.30;;;;;;;;;;5013941;28;20025;-77
2022/06/03 09:16:16;;;;;;;3.78;1.60;;;;;;;;;;5014149;28;20037;-76
2022/06/03 09:19:01;;;;;;;1.52;1.27;;;;;;;;;;5013644;28;20022;-75
2022/06/03 09:21:31;;;;;;;1.38;1.17;;;;;;;;;;5014193;28;20483;-75
2022/06/03 09:24:05;;;;;;;1.83;1.40;;;;;;;;;;5013987;28;20171;-76
2022/06/03 09:26:38;;;;;;;2.00;1.25;;;;;;;;;;5013969;28;20026;-74
2022/06/03 09:29:06;;;;;;;2.40;1.40;;;;;;;;;;5014068;28;20034;-76
2022/06/03 09:31:35;;;;;;;1.33;1.23;;;;;;;;;;5013382;28;20034;-75
2022/06/03 09:34:01;;;;;;;2.85;1.40;;;;;;;;;;5014001;28;20030;-77
2022/06/03 09:36:27;;;;;;;1.92;1.40;;;;;;;;;;4996114;28;20045;-76
2022/06/03 09:38:58;;;;;;;2.28;1.50;;;;;;;;;;5013932;28;20026;-76
2022/06/03 09:41:27;;;;;;;3.85;1.42;;;;;;;;;;5013795;28;20029;-75
2022/06/03 09:43:54;;;;;;;4.63;1.50;;;;;;;;;;5013408;28;20430;-76
2022/06/03 09:46:23;;;;;;;5.38;1.40;;;;;;;;;;5013383;28;20036;-76
2022/06/03 09:48:49;;;;;;;3.30;1.50;;;;;;;;;;5013732;28;20084;-75
2022/06/03 09:51:19;;;;;;;4.95;1.40;;;;;;;;;;5013334;28;20021;-76
2022/06/03 09:53:45;;;;;;;4.85;1.33;;;;;;;;;;5013448;28;20041;-76
2022/06/03 09:56:26;;;;;;;5.15;1.60;;;;;;;;;;5013730;28;20022;-76
2022/06/03 09:58:55;;;;;;;2.92;1.50;;;;;;;;;;5014192;28;20383;-75
2022/06/03 10:01:21;;;;;;;3.40;1.40;;;;;;;;;;5013454;28;20061;-77
2022/06/03 10:03:46;;;;;;;2.80;1.30;;;;;;;;;;5013621;28;20060;-76
2022/06/03 10:06:43;;;;;;;6.57;1.50;;;;;;;;;;5013524;28;20048;-77
2022/06/03 10:14:26;;;;;;;3.55;1.50;;;;;;;;;;5013272;28;20064;-76
2022/06/03 10:16:51;;;;;;;1.58;1.33;;;;;;;;;;5013093;28;20053;-75
2022/06/03 10:19:16;;;;;;;6.63;1.50;;;;;;;;;;5013118;28;20034;-76
2022/06/03 10:21:51;;;;;;;2.80;1.40;;;;;;;;;;5012922;28;20345;-76
2022/06/03 10:24:17;;;;;;;3.10;1.45;;;;;;;;;;4995531;28;20255;-76
2022/06/03 10:26:49;;;;;;;3.23;1.60;;;;;;;;;;5012993;28;20028;-75
2022/06/03 10:29:20;;;;;;;3.97;1.40;;;;;;;;;;5013796;28;20247;-77
2022/06/03 10:31:55;;;;;;;2.25;1.55;;;;;;;;;;5016913;28;20554;-75
2022/06/03 10:34:25;;;;;;;1.88;1.50;;;;;;;;;;5017643;28;20061;-76
2022/06/03 10:36:54;;;;;;;1.98;1.40;;;;;;;;;;5017259;28;20091;-76
2022/06/03 10:39:23;;;;;;;4.30;1.58;;;;;;;;;;5017066;28;20478;-76
2022/06/03 10:41:53;;;;;;;3.10;1.60;;;;;;;;;;5016947;28;20383;-76
2022/06/03 10:44:23;;;;;;;2.35;1.80;;;;;;;;;;5017124;28;20029;-76
2022/06/03 10:47:02;;;;;;;1.98;1.33;;;;;;;;;;5016785;28;20053;-76
2022/06/03 10:49:30;;;;;;;3.05;1.70;;;;;;;;;;5017327;28;20018;-76
2022/06/03 11:03:26;;;;;;;3.55;1.60;;;;;;;;;;5016963;28;20117;-76
2022/06/03 11:05:51;;;;;;;2.67;1.60;;;;;;;;;;5016567;28;20092;-76
2022/06/03 11:08:16;;;;;;;1.50;1.40;;;;;;;;;;4998712;28;20483;-75
2022/06/03 11:10:54;;;;;;;1.70;1.60;;;;;;;;;;4998556;28;20121;-76
2022/06/03 11:13:31;;;;;;;5.35;1.50;;;;;;;;;;5016703;28;20030;-75
2022/06/03 11:16:13;;;;;;;2.95;1.55;;;;;;;;;;5016444;28;20034;-76
2022/06/03 11:18:38;;;;;;;2.22;1.50;;;;;;;;;;5016519;28;20036;-77
2022/06/03 11:21:27;;;;;;;3.42;1.60;;;;;;;;;;5016030;28;20030;-77
2022/06/03 11:23:56;;;;;;;1.60;1.50;;;;;;;;;;5016315;28;20030;-75
2022/06/03 11:26:27;;;;;;;3.83;1.55;;;;;;;;;;5016122;28;20487;-75
2022/06/03 11:28:59;;;;;;;2.13;1.60;;;;;;;;;;4998428;28;20087;-75
2022/06/03 11:31:34;;;;;;;4.80;1.60;;;;;;;;;;5016399;28;20042;-77
2022/06/03 11:34:09;;;;;;;4.15;1.70;;;;;;;;;;5016647;28;20033;-76
2022/06/03 11:36:50;;;;;;;5.60;1.60;;;;;;;;;;5015963;28;20026;-75
2022/06/03 11:39:46;;;;;;;3.75;1.67;;;;;;;;;;5015984;28;20036;-76
2022/06/03 11:42:31;;;;;;;5.07;2.78;;;;;;;;;;5015743;28;20415;-77
2022/06/03 11:45:14;;;;;;;6.20;3.25;;;;;;;;;;5016149;28;20029;-76
2022/06/03 11:47:55;;;;;;;3.40;1.50;;;;;;;;;;5015779;28;20506;-76
2022/06/03 11:50:23;;;;;;;2.78;1.45;;;;;;;;;;5015653;28;20029;-77
2022/06/03 11:52:51;;;;;;;1.58;1.40;;;;;;;;;;5015467;28;20471;-76
2022/06/03 11:55:22;;;;;;;1.80;1.50;;;;;;;;;;5015676;28;20021;-76
2022/06/03 11:58:00;;;;;;;1.90;1.58;;;;;;;;;;5015615;28;20053;-74
2022/06/03 12:00:29;;;;;;;6.28;1.55;;;;;;;;;;5015541;28;20022;-76
2022/06/03 12:03:27;;;;;;;2.60;1.80;;;;;;;;;;5015283;28;20024;-76
2022/06/03 12:06:01;;;;;;;7.38;1.55;;;;;;;;;;5014576;28;20044;-76
2022/06/03 12:08:47;;;;;;;3.00;1.80;;;;;;;;;;5015623;28;20037;-76
2022/06/03 12:14:24;;;;;;;3.60;1.80;;;;;;;;;;5015326;28;20108;-76
2022/06/03 12:17:09;;;;;;;2.45;1.67;;;;;;;;;;5015234;28;20164;-76
2022/06/03 12:19:36;;;;;;;3.25;1.73;;;;;;;;;;5015035;28;20033;-77
2022/06/03 12:22:39;;;;;;;4.47;1.70;;;;;;;;;;5014875;28;20483;-77
2022/06/03 12:25:26;;;;;;;3.22;1.80;;;;;;;;;;4916626;29;20482;-76
2022/06/03 12:27:54;;;;;;;6.63;2.03;;;;;;;;;;5010259;28;20049;-75
2022/06/03 12:30:33;;;;;;;2.83;1.60;;;;;;;;;;5014824;28;20398;-76
2022/06/03 12:33:03;;;;;;;3.22;1.60;;;;;;;;;;5015213;28;20030;-76
2022/06/03 12:35:44;;;;;;;2.70;1.67;;;;;;;;;;5014695;28;20030;-76
2022/06/03 12:38:21;;;;;;;1.50;1.40;;;;;;;;;;4997481;28;20026;-76
2022/06/03 12:40:52;;;;;;;2.20;1.52;;;;;;;;;;5014775;28;20022;-76
2022/06/03 12:43:46;;;;;;;2.45;1.50;;;;;;;;;;5014587;28;20114;-76
2022/06/03 12:46:36;;;;;;;2.72;1.60;;;;;;;;;;5005472;28;20126;-76
2022/06/03 12:49:04;;;;;;;3.38;1.50;;;;;;;;;;5014518;28;20022;-76
2022/06/03 12:51:33;;;;;;;3.58;1.50;;;;;;;;;;5013863;28;20049;-75
2022/06/03 12:54:14;;;;;;;3.83;1.65;;;;;;;;;;5014778;28;20068;-76
2022/06/03 12:56:43;;;;;;;3.65;1.70;;;;;;;;;;5014317;28;20101;-77
2022/06/03 12:59:19;;;;;;;3.67;1.60;;;;;;;;;;5014199;28;20028;-75
2022/06/03 13:02:04;;;;;;;3.53;1.40;;;;;;;;;;5014221;28;20026;-76
2022/06/03 13:04:38;;;;;;;3.25;1.70;;;;;;;;;;5014531;28;20057;-76
2022/06/03 13:07:16;;;;;;;3.47;1.60;;;;;;;;;;5014703;28;20030;-76
2022/06/03 13:09:52;;;;;;;2.35;1.60;;;;;;;;;;5014323;28;20046;-76
2022/06/03 13:12:44;;;;;;;6.50;1.52;;;;;;;;;;5013933;28;20487;-75
2022/06/03 13:15:21;;;;;;;4.10;1.55;;;;;;;;;;5014621;28;20116;-76
2022/06/03 13:18:20;;;;;;;4.72;1.95;;;;;;;;;;5014362;28;20047;-77
2022/06/03 13:21:07;;;;;;;6.15;1.73;;;;;;;;;;5014401;28;20026;-77
2022/06/03 13:23:53;;;;;;;2.40;1.52;;;;;;;;;;5014135;28;20032;-77
2022/06/03 13:26:21;;;;;;;2.13;1.50;;;;;;;;;;5014049;28;20021;-76
2022/06/03 13:29:08;;;;;;;1.95;1.40;;;;;;;;;;4996557;28;20386;-77
2022/06/03 13:31:40;;;;;;;2.67;1.50;;;;;;;;;;4996137;28;20029;-77
2022/06/03 13:34:05;;;;;;;3.10;1.40;;;;;;;;;;5013848;28;20077;-75
2022/06/03 13:36:45;;;;;;;2.92;1.90;;;;;;;;;;5013981;28;20041;-76
2022/06/03 13:39:14;;;;;;;3.65;1.45;;;;;;;;;;5013779;28;20025;-75
2022/06/03 13:44:46;;;;;;;4.63;1.65;;;;;;;;;;5013916;28;20116;-76
2022/06/03 13:47:20;;;;;;;2.85;1.52;;;;;;;;;;5013708;28;20076;-76
2022/06/03 13:49:57;;;;;;;4.70;1.40;;;;;;;;;;5013793;28;20038;-77
2022/06/03 13:52:30;;;;;;;2.80;1.85;;;;;;;;;;5013740;28;20060;-77
2022/06/03 13:55:05;;;;;;;3.83;1.40;;;;;;;;;;5013450;28;20053;-77
2022/06/03 13:57:36;;;;;;;4.07;1.40;;;;;;;;;;5013816;28;20507;-75
2022/06/03 14:00:09;;;;;;;2.08;1.60;;;;;;;;;;5014018;28;20048;-76
2022/06/03 14:02:38;;;;;;;2.53;1.80;;;;;;;;;;5013284;28;20021;-76
2022/06/03 14:05:10;;;;;;;3.85;1.67;;;;;;;;;;5013297;28;20100;-76
2022/06/03 14:07:39;;;;;;;1.85;1.60;;;;;;;;;;5013645;28;20161;-75
2022/06/03 14:10:20;;;;;;;1.80;1.50;;;;;;;;;;5013323;28;20026;-75
2022/06/03 14:13:10;;;;;;;1.95;1.60;;;;;;;;;;5013053;28;20036;-76
2022/06/03 14:15:50;;;;;;;4.25;1.50;;;;;;;;;;5013832;28;20030;-77
2022/06/03 14:19:04;;;;;;;2.90;1.50;;;;;;;;;;5013156;28;20107;-77
2022/06/03 14:21:51;;;;;;;3.67;1.50;;;;;;;;;;4959931;28;20039;-76
2022/06/03 14:24:33;;;;;;;2.28;1.35;;;;;;;;;;5013616;28;20522;-76
2022/06/03 14:27:10;;;;;;;2.85;1.70;;;;;;;;;;5013577;28;20033;-76
2022/06/03 14:29:42;;;;;;;3.05;1.50;;;;;;;;;;5013160;28;20065;-74
2022/06/03 14:32:11;;;;;;;3.97;1.60;;;;;;;;;;5012822;28;20119;-76
2022/06/03 14:34:44;;;;;;;3.33;1.70;;;;;;;;;;5012924;28;20036;-76
2022/06/03 14:37:15;;;;;;;3.42;1.67;;;;;;;;;;5012943;28;20402;-76
2022/06/03 14:39:44;;;;;;;3.53;1.63;;;;;;;;;;4995387;28;20514;-77
2022/06/03 14:42:15;;;;;;;3.78;1.55;;;;;;;;;;5012927;28;20088;-75
2022/06/03 14:44:43;;;;;;;1.80;1.42;;;;;;;;;;5013330;28;20036;-75
2022/06/03 14:47:19;;;;;;;1.60;1.35;;;;;;;;;;5012919;28;20493;-76
2022/06/03 14:49:48;;;;;;;3.83;1.60;;;;;;;;;;4995489;28;20053;-76
2022/06/03 14:52:21;;;;;;;3.80;1.67;;;;;;;;;;5012705;28;20022;-75
2022/06/03 14:55:13;;;;;;;1.95;1.63;;;;;;;;;;5013424;28;20014;-75
2022/06/03 14:57:45;;;;;;;3.10;1.50;;;;;;;;;;5001789;28;20112;-76
2022/06/03 15:00:11;;;;;;;3.65;1.75;;;;;;;;;;4995101;28;20044;-76
2022/06/03 15:02:44;;;;;;;1.77;1.52;;;;;;;;;;5012469;28;20439;-76
2022/06/03 15:05:22;;;;;;;7.63;1.73;;;;;;;;;;5013034;28;20061;-76
2022/06/03 15:07:51;;;;;;;4.82;1.67;;;;;;;;;;5012768;28;20037;-76
2022/06/03 15:10:21;;;;;;;4.13;1.65;;;;;;;;;;5012539;28;20025;-76
2022/06/03 15:12:57;;;;;;;4.00;1.60;;;;;;;;;;5012951;28;20422;-75
2022/06/03 15:15:32;;;;;;;4.38;1.90;;;;;;;;;;5013193;28;20040;-76
2022/06/03 15:18:10;;;;;;;2.60;1.60;;;;;;;;;;5016598;28;20544;-77
2022/06/03 15:20:36;;;;;;;2.30;1.60;;;;;;;;;;4998724;28;20088;-76
2022/06/03 15:23:04;;;;;;;3.40;1.63;;;;;;;;;;5016174;28;20018;-76
2022/06/03 15:25:42;;;;;;;2.03;1.63;;;;;;;;;;5016032;28;20164;-75
2022/06/03 15:28:10;;;;;;;2.40;1.70;;;;;;;;;;5016358;28;20463;-76
2022/06/03 15:31:00;;;;;;;4.35;1.80;;;;;;;;;;5016299;28;20022;-76
2022/06/03 15:33:37;;;;;;;2.78;1.70;;;;;;;;;;5015949;28;20030;-76
2022/06/03 15:36:17;;;;;;;2.53;1.80;;;;;;;;;;5015900;28;20036;-75
2022/06/03 15:38:44;;;;;;;4.50;1.70;;;;;;;;;;5016258;28;20048;-76
2022/06/03 15:41:14;;;;;;;2.53;1.80;;;;;;;;;;5015847;28;20041;-76
2022/06/03 15:43:48;;;;;;;6.57;1.65;;;;;;;;;;5015759;28;20079;-76
2022/06/03 15:46:29;;;;;;;2.03;1.60;;;;;;;;;;5015684;28;20509;-76
2022/06/03 15:49:00;;;;;;;3.88;1.83;;;;;;;;;;5015796;28;20026;-76
2022/06/03 15:51:25;;;;;;;3.58;1.77;;;;;;;;;;5015651;28;20026;-75
2022/06/03 15:53:56;;;;;;;8.38;1.90;;;;;;;;;;4997870;28;20034;-76
2022/06/03 15:56:28;;;;;;;4.78;1.80;;;;;;;;;;5015552;28;20602;-76
2022/06/03 15:59:07;;;;;;;2.35;1.60;;;;;;;;;;5015474;28;20026;-77
2022/06/03 16:01:46;;;;;;;4.40;1.42;;;;;;;;;;5015636;28;20026;-75
2022/06/03 16:04:26;;;;;;;2.00;1.60;;;;;;;;;;5015338;28;20026;-76
2022/06/03 16:07:11;;;;;;;2.00;1.63;;;;;;;;;;4998182;28;20088;-75
2022/06/03 16:09:58;;;;;;;3.00;1.75;;;;;;;;;;5015586;28;20017;-76
2022/06/03 16:12:46;;;;;;;1.83;1.58;;;;;;;;;;5015411;28;20121;-76
2022/06/03 16:15:52;;;;;;;2.75;1.67;;;;;;;;;;5015197;28;20534;-76
2022/06/03 16:18:29;;;;;;;4.93;1.92;;;;;;;;;;5015621;28;20363;-76
2022/06/03 16:21:18;;;;;;;2.72;1.85;;;;;;;;;;5015668;28;20068;-76
2022/06/03 16:23:47;;;;;;;4.10;1.85;;;;;;;;;;5015208;28;20018;-76
2022/06/03 16:26:24;;;;;;;4.03;1.92;;;;;;;;;;4997070;28;20021;-76
2022/06/03 16:29:23;;;;;;;2.60;1.83;;;;;;;;;;5014852;28;20029;-76
2022/06/03 16:31:54;;;;;;;4.35;1.88;;;;;;;;;;5014756;28;20034;-76
2022/06/03 16:34:35;;;;;;;2.70;1.70;;;;;;;;;;5014877;28;20075;-76
2022/06/03 16:37:17;;;;;;;4.00;1.90;;;;;;;;;;5015002;28;20041;-76
2022/06/03 16:39:56;;;;;;;2.05;1.80;;;;;;;;;;5014764;28;20451;-77